createdAt,value
2022-10-23T00:01:20.125Z,38.55
2022-10-23T00:06:15.325Z,38.03
2022-10-23T00:11:15.091Z,36.08
2022-10-23T00:16:08.767Z,37.03
2022-10-23T00:21:03.445Z,38.25
2022-10-23T00:25:57.788Z,36.78
2022-10-23T00:30:50.945Z,38.05
2022-10-23T00:35:44.260Z,38.50
2022-10-23T00:40:38.260Z,39.13
2022-10-23T00:45:34.040Z,36.70
2022-10-23T00:50:30.387Z,37.25
2022-10-23T00:55:25.665Z,37.03
2022-10-23T01:00:23.289Z,37.72
2022-10-23T01:05:16.854Z,36.35
2022-10-23T01:10:30.623Z,40.33
2022-10-23T01:15:28.596Z,39.70
2022-10-23T01:20:33.587Z,41.50
2022-10-23T01:25:53.344Z,44.47
2022-10-23T01:30:47.513Z,41.38
2022-10-23T01:36:05.154Z,41.72
2022-10-23T01:41:39.925Z,41.70
2022-10-23T01:46:38.354Z,41.83
2022-10-23T01:51:35.736Z,40.25
2022-10-23T01:56:36.181Z,39.92
2022-10-23T02:01:30.975Z,37.15
2022-10-23T02:06:30.683Z,38.25
2022-10-23T02:11:24.279Z,39.80
2022-10-23T02:16:35.704Z,37.30
2022-10-23T02:21:53.288Z,34.88
2022-10-23T02:26:56.084Z,36.05
2022-10-23T02:31:50.297Z,37.80
2022-10-23T02:36:45.015Z,36.38
2022-10-23T02:41:49.077Z,37.15
2022-10-23T02:46:57.439Z,37.60
2022-10-23T02:52:46.424Z,35.45
2022-10-23T02:58:04.641Z,37.28
2022-10-23T03:03:38.454Z,37.30
2022-10-23T03:09:09.806Z,36.97
2022-10-23T03:14:44.176Z,35.78
2022-10-23T03:19:38.228Z,37.67
2022-10-23T03:24:32.251Z,38.78
2022-10-23T03:29:26.455Z,38.35
2022-10-23T03:34:20.823Z,43.03
2022-10-23T03:39:14.878Z,39.65
2022-10-23T03:44:08.980Z,40.28
2022-10-23T03:49:03.323Z,43.22
2022-10-23T03:53:56.629Z,43.38
2022-10-23T04:03:43.610Z,50.70
2022-10-23T04:08:37.563Z,50.58
2022-10-23T04:13:38.200Z,51.85
2022-10-23T04:18:33.323Z,52.92
2022-10-23T04:23:26.381Z,52.08
2022-10-23T04:28:20.608Z,53.90
2022-10-23T04:33:14.683Z,64.07
2022-10-23T04:38:09.724Z,61.60
2022-10-23T04:43:03.666Z,70.28
2022-10-23T04:48:02.389Z,76.68
2022-10-23T04:53:04.663Z,79.80
2022-10-23T04:58:15.453Z,68.45
2022-10-23T05:03:10.009Z,59.15
2022-10-23T05:08:07.673Z,55.05
2022-10-23T05:13:20.247Z,48.40
2022-10-23T05:18:20.319Z,59.30
2022-10-23T05:23:26.197Z,56.38
2022-10-23T05:28:23.737Z,47.08
2022-10-23T05:33:17.272Z,43.90
2022-10-23T05:38:11.027Z,42.67
2022-10-23T05:43:04.857Z,51.67
2022-10-23T05:48:29.977Z,56.05
2022-10-23T05:53:46.017Z,66.32
2022-10-23T05:58:58.829Z,58.95
2022-10-23T06:04:09.851Z,53.17
2022-10-23T06:09:32.436Z,52.05
2022-10-23T06:14:26.398Z,45.72
2022-10-23T06:19:21.070Z,49.30
2022-10-23T06:24:18.645Z,51.15
2022-10-23T06:29:34.451Z,48.47
2022-10-23T06:34:27.440Z,47.63
2022-10-23T06:39:22.220Z,52.38
2022-10-23T06:44:31.543Z,85.55
2022-10-23T06:54:28.923Z,79.75
2022-10-23T06:59:51.376Z,74.43
2022-10-23T07:04:46.447Z,69.05
2022-10-23T07:09:45.848Z,71.05
2022-10-23T07:14:47.564Z,73.43
2022-10-23T07:19:42.479Z,56.38
2022-10-23T07:24:38.595Z,52.92
2022-10-23T07:29:42.660Z,60.95
2022-10-23T07:34:37.686Z,61.53
2022-10-23T07:39:57.081Z,69.50
2022-10-23T07:44:51.508Z,72.03
2022-10-23T07:49:48.469Z,71.88
2022-10-23T07:54:51.796Z,70.05
2022-10-23T07:59:48.646Z,67.22
2022-10-23T08:04:53.299Z,71.13
2022-10-23T08:15:07.232Z,69.05
2022-10-23T08:20:21.908Z,63.57
2022-10-23T08:25:24.829Z,69.35
2022-10-23T08:30:25.039Z,71.13
2022-10-23T08:35:21.555Z,73.00
2022-10-23T08:40:21.409Z,74.72
2022-10-23T08:45:52.311Z,81.28
2022-10-23T08:51:15.136Z,74.68
2022-10-23T08:56:40.368Z,82.45
2022-10-23T09:01:43.859Z,85.97
2022-10-23T09:07:05.230Z,82.78
2022-10-23T09:12:16.158Z,87.77
2022-10-23T09:17:30.958Z,91.55
2022-10-23T09:22:31.785Z,89.40
2022-10-23T09:27:30.902Z,86.85
2022-10-23T09:32:38.810Z,79.25
2022-10-23T09:37:40.271Z,83.30
2022-10-23T09:42:36.783Z,77.28
2022-10-23T09:47:33.062Z,76.72
2022-10-23T09:52:40.635Z,67.93
2022-10-23T09:57:44.706Z,68.68
2022-10-23T10:02:42.992Z,62.45
2022-10-23T10:08:21.657Z,61.97
2022-10-23T10:13:51.285Z,66.05
2022-10-23T10:18:53.203Z,75.25
2022-10-23T10:23:56.224Z,77.70
2022-10-23T10:28:49.197Z,82.53
2022-10-23T10:33:59.095Z,80.30
2022-10-23T10:38:59.120Z,71.57
2022-10-23T10:44:20.604Z,68.03
2022-10-23T10:49:26.797Z,71.57
2022-10-23T10:54:34.680Z,82.45
2022-10-23T10:59:40.138Z,90.25
2022-10-23T11:04:56.892Z,89.47
2022-10-23T11:09:52.093Z,84.15
2022-10-23T11:14:46.823Z,76.28
2022-10-23T11:19:48.376Z,68.60
2022-10-23T11:25:08.196Z,70.40
2022-10-23T11:30:23.463Z,66.10
2022-10-23T11:35:32.159Z,64.82
2022-10-23T11:40:26.649Z,69.68
2022-10-23T11:45:32.510Z,62.78
2022-10-23T11:50:31.956Z,61.63
2022-10-23T11:55:29.944Z,62.33
2022-10-23T12:00:24.919Z,57.75
2022-10-23T12:05:39.082Z,62.35
2022-10-23T12:10:48.351Z,60.75
2022-10-23T12:15:42.454Z,57.97
2022-10-23T12:21:00.537Z,55.13
2022-10-23T12:26:25.060Z,56.20
2022-10-23T12:31:48.235Z,54.13
2022-10-23T12:36:47.202Z,52.83
2022-10-23T12:41:41.044Z,53.92
2022-10-23T12:46:34.137Z,52.65
2022-10-23T12:51:32.825Z,52.95
2022-10-23T12:56:29.559Z,51.38
2022-10-23T13:01:31.593Z,50.08
2022-10-23T13:06:26.037Z,50.30
2022-10-23T13:11:19.644Z,51.05
2022-10-23T13:16:20.131Z,47.45
2022-10-23T13:21:24.536Z,48.90
2022-10-23T13:26:43.636Z,44.92
2022-10-23T13:31:37.136Z,47.47
2022-10-23T13:36:32.113Z,47.35
2022-10-23T13:41:28.447Z,43.70
2022-10-23T13:46:24.634Z,45.75
2022-10-23T13:51:22.933Z,42.70
2022-10-23T13:56:20.639Z,43.75
2022-10-23T14:01:44.599Z,39.58
2022-10-23T14:06:40.622Z,38.30
2022-10-23T14:11:34.465Z,39.00
2022-10-23T14:16:29.059Z,39.55
2022-10-23T14:21:24.076Z,34.72
2022-10-23T14:26:24.694Z,30.20
2022-10-23T14:31:19.092Z,36.30
2022-10-23T14:36:12.787Z,35.08
2022-10-23T14:41:15.260Z,32.45
2022-10-23T14:46:30.180Z,32.47
2022-10-23T14:51:29.492Z,32.08
2022-10-23T14:56:23.902Z,27.58
2022-10-23T15:01:17.706Z,31.05
2022-10-23T15:06:16.111Z,28.65
2022-10-23T15:11:12.947Z,29.77
2022-10-23T15:16:26.352Z,29.88
2022-10-23T15:21:19.358Z,30.02
2022-10-23T15:26:22.229Z,28.90
2022-10-23T15:31:49.572Z,29.10
2022-10-23T15:36:42.817Z,28.55
2022-10-23T15:41:38.968Z,31.85
2022-10-23T15:46:32.443Z,28.70
2022-10-23T15:51:26.192Z,30.27
2022-10-23T15:56:20.029Z,30.17
2022-10-23T16:01:14.223Z,29.25
2022-10-23T16:06:11.036Z,28.25
2022-10-23T16:11:05.721Z,28.52
2022-10-23T16:16:03.191Z,29.92
2022-10-23T16:20:57.651Z,30.30
2022-10-23T16:25:52.767Z,31.08
2022-10-23T16:30:47.135Z,33.08
2022-10-23T16:35:41.865Z,32.25
2022-10-23T16:40:41.833Z,30.48
2022-10-23T16:46:09.218Z,32.20
2022-10-23T16:51:13.435Z,30.73
2022-10-23T16:56:09.081Z,32.55
2022-10-23T17:01:06.813Z,31.45
2022-10-23T17:06:02.822Z,32.35
2022-10-23T17:11:06.394Z,29.75
2022-10-23T17:16:10.849Z,32.20
2022-10-23T17:21:04.979Z,33.65
2022-10-23T17:25:59.254Z,31.40
2022-10-23T17:30:57.357Z,31.08
2022-10-23T17:35:51.379Z,29.42
2022-10-23T17:40:47.944Z,28.52
2022-10-23T17:45:42.882Z,28.70
2022-10-23T17:50:36.308Z,28.70
2022-10-23T17:55:30.301Z,28.88
2022-10-23T18:00:24.985Z,28.73
2022-10-23T18:05:20.835Z,27.73
2022-10-23T18:10:19.298Z,27.52
2022-10-23T18:15:13.159Z,28.60
2022-10-23T18:20:09.148Z,28.33
2022-10-23T18:25:04.593Z,29.33
2022-10-23T18:29:58.619Z,29.90
2022-10-23T18:34:51.909Z,28.70
2022-10-23T18:39:45.761Z,29.23
2022-10-23T18:44:39.774Z,30.27
2022-10-23T18:49:33.071Z,29.30
2022-10-23T18:54:26.301Z,28.05
2022-10-23T18:59:21.847Z,29.90
2022-10-23T19:04:17.931Z,29.60
2022-10-23T19:09:16.916Z,30.83
2022-10-23T19:14:11.144Z,32.05
2022-10-23T19:19:11.146Z,36.00
2022-10-23T19:24:14.335Z,36.67
2022-10-23T19:29:10.500Z,34.28
2022-10-23T19:34:04.600Z,32.78
2022-10-23T19:38:59.031Z,30.77
2022-10-23T19:43:53.256Z,30.95
2022-10-23T19:48:47.610Z,30.75
2022-10-23T19:53:42.901Z,30.48
2022-10-23T19:58:37.372Z,29.75
2022-10-23T20:03:31.151Z,28.13
2022-10-23T20:08:25.513Z,29.40
2022-10-23T20:13:20.135Z,28.83
2022-10-23T20:18:14.132Z,28.98
2022-10-23T20:23:07.820Z,31.30
2022-10-23T20:28:01.633Z,30.27
2022-10-23T20:32:56.405Z,28.75
2022-10-23T20:37:50.196Z,28.88
2022-10-23T20:42:44.404Z,29.35
2022-10-23T20:47:38.198Z,27.25
2022-10-23T20:57:26.494Z,29.02
2022-10-23T21:02:19.602Z,27.65
2022-10-23T21:07:14.148Z,29.60
2022-10-23T21:12:07.771Z,30.45
2022-10-23T21:17:01.338Z,30.30
2022-10-23T21:21:55.862Z,31.48
2022-10-23T21:26:48.887Z,32.65
2022-10-23T21:31:42.480Z,30.88
2022-10-23T21:36:43.725Z,31.73
2022-10-23T21:41:49.784Z,31.05
2022-10-23T21:46:45.083Z,30.10
2022-10-23T21:51:38.905Z,28.83
2022-10-23T21:56:41.690Z,27.92
2022-10-23T22:01:36.341Z,31.73
2022-10-23T22:06:31.735Z,30.00
2022-10-23T22:11:25.306Z,31.85
2022-10-23T22:16:21.145Z,30.77
2022-10-23T22:21:25.873Z,31.50
2022-10-23T22:26:20.528Z,30.63
2022-10-23T22:31:18.873Z,27.98
2022-10-23T22:36:13.339Z,28.35
2022-10-23T22:41:08.475Z,28.40
2022-10-23T22:46:11.511Z,28.73
2022-10-23T22:51:07.357Z,30.80
2022-10-23T22:56:02.804Z,29.75
2022-10-23T23:01:13.482Z,27.92
2022-10-23T23:06:07.866Z,30.45
2022-10-23T23:11:02.371Z,29.67
2022-10-23T23:16:00.023Z,30.60
2022-10-23T23:20:53.358Z,32.17
2022-10-23T23:25:53.522Z,33.72
2022-10-23T23:30:47.902Z,32.53
2022-10-23T23:35:42.550Z,31.38
2022-10-23T23:40:36.481Z,31.95
2022-10-23T23:45:30.771Z,33.17
2022-10-23T23:50:24.022Z,34.80
2022-10-23T23:55:17.465Z,33.17
